Terminal Aerodrome Forecast
Issued by NWS

Home | Current Version | Previous Version | Text Only | Print | Product List | Glossary On
Versions: 1 2 3 4 5 6 7 8 9 10 11 12 13 14 15 16 17 18 19 20 21 22 23 24 25
000
FTUS45 KBOI 040533 CCA
TAFJER
TAF COR
KJER 040533Z 0406/0506 09009KT P6SM FEW150
      TEMPO 0409/0411 28010G20KT P6SM -SHRA BKN100
     FM042100 17010G20KT P6SM VCTS BKN100CB
     FM050000 09011KT P6SM -SHRA OVC100=

USA.gov is the U.S. government's official web portal to all federal, state and local government web resources and services.